createdAt,value
2018-11-02T00:02:05.282Z,67.80
2018-11-02T00:04:41.247Z,67.80
2018-11-02T00:10:12.419Z,67.60
2018-11-02T00:12:47.673Z,67.60
2018-11-02T00:15:23.510Z,67.50
2018-11-02T00:17:59.167Z,67.50
2018-11-02T00:20:34.745Z,67.50
2018-11-02T00:23:09.860Z,67.40
2018-11-02T00:25:45.854Z,67.40
2018-11-02T00:28:22.388Z,67.50
2018-11-02T00:33:47.295Z,67.40
2018-11-02T00:36:22.194Z,67.50
2018-11-02T00:38:57.717Z,67.50
2018-11-02T00:41:34.335Z,67.50
2018-11-02T00:44:09.355Z,67.30
2018-11-02T00:46:43.989Z,67.40
2018-11-02T00:49:18.006Z,67.60
2018-11-02T00:51:52.002Z,67.90
2018-11-02T00:54:26.949Z,68.00
2018-11-02T00:57:01.988Z,68.00
2018-11-02T00:59:36.893Z,68.00
2018-11-02T01:02:12.011Z,68.00
2018-11-02T01:04:47.133Z,67.90
2018-11-02T01:07:22.346Z,67.90
2018-11-02T01:09:57.814Z,68.00
2018-11-02T01:12:32.200Z,68.00
2018-11-02T01:15:07.854Z,68.00
2018-11-02T01:17:42.935Z,68.00
2018-11-02T01:20:18.315Z,67.90
2018-11-02T01:22:54.102Z,67.80
2018-11-02T01:25:29.105Z,67.70
2018-11-02T01:28:03.859Z,67.70
2018-11-02T01:30:38.750Z,67.70
2018-11-02T01:33:13.119Z,67.70
2018-11-02T01:35:48.520Z,67.70
2018-11-02T01:38:24.610Z,67.70
2018-11-02T01:40:59.123Z,67.70
2018-11-02T01:43:34.298Z,67.70
2018-11-02T01:46:08.774Z,67.60
2018-11-02T01:51:43.040Z,67.70
2018-11-02T01:54:19.454Z,67.70
2018-11-02T01:56:55.578Z,67.60
2018-11-02T01:59:30.293Z,67.70
2018-11-02T02:02:06.742Z,67.70
2018-11-02T02:04:41.049Z,67.70
2018-11-02T02:07:16.431Z,67.70
2018-11-02T02:09:51.675Z,67.70
2018-11-02T02:12:26.093Z,67.60
2018-11-02T02:15:01.951Z,67.80
2018-11-02T02:17:37.132Z,68.00
2018-11-02T02:20:12.541Z,67.90
2018-11-02T02:22:47.981Z,68.00
2018-11-02T02:25:23.688Z,68.00
2018-11-02T02:27:59.416Z,68.00
2018-11-02T02:30:34.060Z,68.00
2018-11-02T02:33:10.377Z,68.00
2018-11-02T02:35:46.256Z,67.90
2018-11-02T02:38:20.907Z,67.90
2018-11-02T02:40:56.453Z,67.70
2018-11-02T02:43:31.117Z,67.70
2018-11-02T02:46:05.840Z,67.70
2018-11-02T02:48:40.554Z,67.60
2018-11-02T02:51:15.868Z,67.60
2018-11-02T02:53:50.936Z,67.60
2018-11-02T02:56:25.920Z,67.40
2018-11-02T02:59:00.237Z,67.40
2018-11-02T03:01:35.567Z,67.30
2018-11-02T03:04:11.966Z,67.30
2018-11-02T03:06:46.545Z,67.10
2018-11-02T03:09:22.043Z,67.00
2018-11-02T03:11:56.037Z,66.90
2018-11-02T03:14:30.285Z,66.80
2018-11-02T03:19:52.565Z,67.00
2018-11-02T03:22:27.502Z,67.00
2018-11-02T03:25:02.230Z,67.10
2018-11-02T03:30:29.046Z,67.00
2018-11-02T03:33:04.135Z,66.90
2018-11-02T03:35:39.022Z,66.80
2018-11-02T03:38:13.845Z,66.70
2018-11-02T03:40:49.215Z,66.70
2018-11-02T03:43:23.786Z,66.80
2018-11-02T03:46:00.213Z,66.70
2018-11-02T03:48:36.144Z,66.70
2018-11-02T03:51:10.777Z,66.60
2018-11-02T03:53:46.370Z,66.40
2018-11-02T03:56:20.944Z,65.90
2018-11-02T03:58:56.387Z,65.70
2018-11-02T04:01:31.747Z,65.60
2018-11-02T04:04:07.219Z,65.60
2018-11-02T04:06:42.243Z,65.50
2018-11-02T04:09:17.476Z,65.50
2018-11-02T04:11:53.476Z,65.50
2018-11-02T04:14:28.164Z,65.50
2018-11-02T04:17:03.408Z,65.40
2018-11-02T04:19:38.586Z,65.30
2018-11-02T04:22:13.715Z,65.30
2018-11-02T04:24:49.851Z,65.30
2018-11-02T04:27:24.141Z,65.20
2018-11-02T04:29:58.717Z,65.60
2018-11-02T04:32:34.006Z,64.80
2018-11-02T04:35:10.277Z,64.80
2018-11-02T04:40:27.519Z,64.60
2018-11-02T04:43:02.841Z,64.30
2018-11-02T04:45:41.126Z,64.30
2018-11-02T04:48:16.275Z,64.30
2018-11-02T04:50:51.633Z,64.30
2018-11-02T04:53:27.183Z,64.30
2018-11-02T04:56:02.391Z,64.00
2018-11-02T04:58:37.658Z,64.10
2018-11-02T05:01:12.693Z,64.30
2018-11-02T05:03:48.433Z,64.90
2018-11-02T05:06:23.729Z,64.20
2018-11-02T05:08:59.446Z,64.10
2018-11-02T05:11:34.157Z,64.00
2018-11-02T05:14:09.671Z,64.00
2018-11-02T05:16:44.905Z,64.10
2018-11-02T05:19:20.602Z,64.10
2018-11-02T05:21:56.665Z,64.10
2018-11-02T05:24:31.890Z,63.90
2018-11-02T05:27:06.816Z,63.90
2018-11-02T05:29:42.731Z,63.80
2018-11-02T05:32:18.778Z,63.70
2018-11-02T05:34:54.567Z,63.80
2018-11-02T05:37:30.135Z,63.70
2018-11-02T05:40:06.303Z,63.60
2018-11-02T05:42:40.631Z,63.70
2018-11-02T05:45:16.046Z,63.80
2018-11-02T05:47:51.344Z,63.70
2018-11-02T05:50:25.684Z,63.70
2018-11-02T05:53:00.431Z,63.70
2018-11-02T05:55:36.402Z,63.70
2018-11-02T05:58:12.483Z,63.70
2018-11-02T06:00:47.823Z,63.60
2018-11-02T06:03:22.426Z,63.50
2018-11-02T06:05:58.315Z,63.80
2018-11-02T06:08:32.222Z,63.70
2018-11-02T06:11:06.301Z,63.80
2018-11-02T06:13:41.725Z,63.80
2018-11-02T06:16:16.134Z,63.80
2018-11-02T06:18:50.078Z,63.80
2018-11-02T06:21:25.433Z,63.90
2018-11-02T06:24:00.009Z,63.80
2018-11-02T06:26:35.184Z,63.90
2018-11-02T06:29:11.262Z,64.00
2018-11-02T06:34:26.691Z,64.00
2018-11-02T06:37:01.720Z,64.10
2018-11-02T06:39:36.243Z,64.10
2018-11-02T06:42:11.361Z,64.10
2018-11-02T06:44:46.266Z,64.10
2018-11-02T06:47:20.978Z,64.00
2018-11-02T06:49:56.121Z,64.10
2018-11-02T06:52:30.409Z,64.20
2018-11-02T06:55:04.398Z,64.20
2018-11-02T06:57:38.686Z,64.20
2018-11-02T07:00:14.475Z,64.10
2018-11-02T07:02:50.405Z,64.20
2018-11-02T07:05:25.354Z,64.10
2018-11-02T07:08:00.159Z,64.10
2018-11-02T07:10:34.799Z,64.20
2018-11-02T07:13:11.168Z,64.10
2018-11-02T07:15:46.861Z,64.10
2018-11-02T07:18:21.819Z,64.00
2018-11-02T07:20:56.944Z,64.00
2018-11-02T07:23:31.279Z,63.90
2018-11-02T07:26:05.939Z,63.90
2018-11-02T07:28:40.879Z,63.80
2018-11-02T07:31:16.127Z,63.90
2018-11-02T07:33:50.499Z,63.80
2018-11-02T07:36:25.392Z,63.90
2018-11-02T07:38:59.638Z,63.70
2018-11-02T07:41:34.247Z,63.50
2018-11-02T07:44:10.400Z,63.40
2018-11-02T07:46:45.042Z,63.20
2018-11-02T07:49:20.448Z,63.20
2018-11-02T07:51:56.166Z,63.30
2018-11-02T07:54:30.953Z,63.40
2018-11-02T07:57:05.610Z,63.30
2018-11-02T08:02:24.481Z,63.20
2018-11-02T08:04:59.710Z,63.30
2018-11-02T08:07:35.226Z,63.20
2018-11-02T08:10:10.197Z,63.10
2018-11-02T08:18:09.861Z,63.30
2018-11-02T08:20:44.340Z,63.20
2018-11-02T08:29:03.905Z,62.90
2018-11-02T08:31:38.316Z,62.60
2018-11-02T08:34:12.943Z,62.80
2018-11-02T08:39:28.653Z,62.90
2018-11-02T08:42:04.276Z,62.70
2018-11-02T08:44:39.068Z,62.40
2018-11-02T08:47:13.438Z,61.80
2018-11-02T08:49:49.546Z,61.60
2018-11-02T08:52:25.830Z,61.20
2018-11-02T08:55:01.773Z,60.90
2018-11-02T08:57:36.842Z,60.60
2018-11-02T09:00:13.631Z,60.60
2018-11-02T09:02:51.327Z,61.00
2018-11-02T09:05:27.637Z,60.80
2018-11-02T09:08:02.338Z,60.70
2018-11-02T09:13:19.938Z,60.60
2018-11-02T09:15:54.889Z,60.40
2018-11-02T09:18:31.339Z,60.20
2018-11-02T09:21:07.234Z,60.10
2018-11-02T09:23:41.507Z,60.70
2018-11-02T09:26:16.743Z,59.80
2018-11-02T09:28:51.481Z,59.90
2018-11-02T09:31:26.689Z,60.00
2018-11-02T09:34:02.435Z,60.00
2018-11-02T09:36:37.865Z,60.30
2018-11-02T09:39:15.561Z,60.50
2018-11-02T09:41:51.549Z,61.40
2018-11-02T09:44:26.648Z,61.30
2018-11-02T09:47:01.706Z,61.50
2018-11-02T09:49:36.651Z,61.40
2018-11-02T09:52:11.572Z,62.70
2018-11-02T09:54:47.641Z,60.50
2018-11-02T10:00:05.627Z,57.00
2018-11-02T10:02:40.716Z,56.80
2018-11-02T10:05:15.106Z,56.40
2018-11-02T10:10:32.894Z,55.40
2018-11-02T10:13:08.027Z,56.20
2018-11-02T10:18:34.713Z,56.90
2018-11-02T10:21:09.985Z,55.40
2018-11-02T10:23:46.278Z,54.40
2018-11-02T10:29:08.350Z,52.90
2018-11-02T10:31:42.670Z,52.70
2018-11-02T10:34:20.931Z,53.10
2018-11-02T10:36:57.032Z,53.70
2018-11-02T10:39:32.092Z,53.30
2018-11-02T10:42:10.389Z,53.50
2018-11-02T10:44:49.283Z,54.10
2018-11-02T10:47:24.525Z,56.20
2018-11-02T10:50:00.894Z,56.40
2018-11-02T10:52:37.000Z,55.00
2018-11-02T10:55:14.924Z,51.70
2018-11-02T10:57:49.743Z,51.60
2018-11-02T11:00:43.335Z,49.50
2018-11-02T11:11:41.029Z,51.40
2018-11-02T11:14:16.408Z,51.80
2018-11-02T11:16:51.108Z,52.30
2018-11-02T11:19:26.674Z,50.90
2018-11-02T11:24:46.029Z,50.60
2018-11-02T11:30:03.504Z,50.20
2018-11-02T11:38:18.541Z,50.50
2018-11-02T11:40:53.861Z,49.70
2018-11-02T11:43:29.298Z,50.00
2018-11-02T11:54:26.063Z,50.50
2018-11-02T11:59:46.882Z,50.80
2018-11-02T12:02:21.827Z,50.20
2018-11-02T12:07:39.622Z,50.30
2018-11-02T12:10:16.818Z,50.30
2018-11-02T12:12:52.154Z,50.40
2018-11-02T12:18:07.877Z,50.30
2018-11-02T12:20:42.996Z,49.80
2018-11-02T12:23:19.961Z,49.40
2018-11-02T12:25:55.859Z,49.40
2018-11-02T12:28:30.708Z,49.30
2018-11-02T12:31:05.220Z,49.30
2018-11-02T12:33:40.855Z,49.40
2018-11-02T12:36:15.267Z,49.50
2018-11-02T12:38:50.038Z,49.70
2018-11-02T12:44:27.381Z,50.00
2018-11-02T12:49:48.384Z,50.10
2018-11-02T12:52:24.204Z,49.10
2018-11-02T12:54:59.921Z,49.10
2018-11-02T12:57:35.770Z,48.70
2018-11-02T13:00:19.033Z,48.70
2018-11-02T13:02:54.160Z,48.60
2018-11-02T13:05:29.169Z,48.50
2018-11-02T13:08:05.027Z,48.20
2018-11-02T13:10:39.903Z,47.90
2018-11-02T13:16:13.011Z,48.10
2018-11-02T13:18:48.986Z,47.90
2018-11-02T13:21:26.094Z,48.00
2018-11-02T13:24:00.632Z,48.00
2018-11-02T13:26:37.706Z,48.10
2018-11-02T13:29:13.305Z,47.80
2018-11-02T13:31:48.805Z,47.80
2018-11-02T13:34:24.950Z,48.00
2018-11-02T13:36:59.600Z,48.00
2018-11-02T13:42:34.650Z,48.00
2018-11-02T13:47:56.720Z,48.30
2018-11-02T13:50:31.203Z,48.40
2018-11-02T13:53:06.494Z,48.60
2018-11-02T13:58:24.427Z,48.50
2018-11-02T14:00:59.822Z,48.40
2018-11-02T14:03:36.138Z,48.40
2018-11-02T14:08:52.045Z,48.90
2018-11-02T14:17:25.719Z,48.90
2018-11-02T14:20:01.618Z,48.80
2018-11-02T14:22:36.892Z,48.90
2018-11-02T14:25:14.277Z,49.10
2018-11-02T14:27:49.895Z,49.30
2018-11-02T14:33:06.308Z,49.70
2018-11-02T14:41:09.473Z,50.00
2018-11-02T14:49:17.006Z,49.80
2018-11-02T14:51:52.873Z,49.90
2018-11-02T14:54:27.225Z,50.00
2018-11-02T14:59:42.134Z,50.30
2018-11-02T15:02:16.509Z,50.50
2018-11-02T15:07:31.767Z,50.60
2018-11-02T15:10:05.886Z,50.80
2018-11-02T15:12:41.014Z,51.50
2018-11-02T15:18:06.454Z,50.90
2018-11-02T15:20:42.378Z,51.10
2018-11-02T15:23:17.889Z,51.70
2018-11-02T15:25:53.584Z,51.00
2018-11-02T15:28:29.111Z,51.10
2018-11-02T15:31:03.763Z,51.20
2018-11-02T15:33:39.190Z,51.80
2018-11-02T15:36:14.208Z,51.20
2018-11-02T15:38:50.440Z,51.30
2018-11-02T15:41:26.284Z,51.40
2018-11-02T15:46:47.943Z,52.00
2018-11-02T15:49:23.173Z,51.50
2018-11-02T15:54:41.395Z,51.70
2018-11-02T15:57:15.664Z,51.80
2018-11-02T15:59:50.190Z,51.90
2018-11-02T16:02:24.962Z,52.00
2018-11-02T16:10:35.072Z,52.00
2018-11-02T16:13:09.986Z,52.20
2018-11-02T16:18:32.438Z,52.30
2018-11-02T16:21:07.275Z,52.50
2018-11-02T16:23:43.220Z,52.50
2018-11-02T16:28:59.384Z,52.80
2018-11-02T16:31:33.738Z,52.90
2018-11-02T16:34:09.384Z,52.90
2018-11-02T16:39:28.196Z,53.30
2018-11-02T16:42:03.973Z,53.20
2018-11-02T16:44:38.316Z,53.30
2018-11-02T16:49:56.100Z,53.50
2018-11-02T16:52:31.034Z,53.70
2018-11-02T16:55:05.195Z,53.80
2018-11-02T16:57:40.902Z,53.90
2018-11-02T17:00:18.859Z,54.00
2018-11-02T17:02:53.299Z,54.00
2018-11-02T17:05:28.673Z,54.10
2018-11-02T17:08:03.852Z,54.20
2018-11-02T17:10:38.885Z,54.20
2018-11-02T17:13:14.672Z,54.30
2018-11-02T17:15:48.714Z,54.40
2018-11-02T17:21:03.935Z,54.60
2018-11-02T17:23:39.276Z,54.60
2018-11-02T17:26:14.604Z,54.70
2018-11-02T17:28:49.475Z,54.80
2018-11-02T17:31:24.626Z,54.90
2018-11-02T17:34:01.641Z,54.90
2018-11-02T17:36:36.617Z,54.90
2018-11-02T17:41:54.881Z,55.10
2018-11-02T17:44:29.826Z,55.10
2018-11-02T17:47:05.091Z,55.20
2018-11-02T17:49:40.741Z,55.30
2018-11-02T17:52:17.225Z,55.50
2018-11-02T17:54:53.142Z,55.60
2018-11-02T17:57:28.202Z,55.80
2018-11-02T18:00:02.647Z,56.00
2018-11-02T18:02:38.340Z,56.30
2018-11-02T18:07:56.419Z,56.50
2018-11-02T18:10:29.771Z,56.50
2018-11-02T18:13:04.825Z,56.70
2018-11-02T18:18:22.393Z,56.70
2018-11-02T18:20:57.987Z,57.00
2018-11-02T18:26:18.796Z,57.20
2018-11-02T18:28:53.924Z,57.40
2018-11-02T18:31:28.303Z,57.50
2018-11-02T18:34:03.104Z,57.50
2018-11-02T18:39:18.456Z,57.80
2018-11-02T18:41:53.039Z,57.70
2018-11-02T18:44:27.177Z,57.80
2018-11-02T18:47:02.405Z,57.80
2018-11-02T18:49:37.985Z,57.90
2018-11-02T18:52:12.333Z,57.80
2018-11-02T18:54:46.699Z,57.90
2018-11-02T18:57:23.277Z,58.00
2018-11-02T18:59:58.045Z,58.00
2018-11-02T19:05:28.321Z,58.10
2018-11-02T19:08:03.323Z,58.00
2018-11-02T19:10:38.595Z,58.00
2018-11-02T19:16:05.667Z,58.10
2018-11-02T19:18:40.378Z,58.00
2018-11-02T19:21:15.329Z,58.10
2018-11-02T19:23:52.327Z,58.10
2018-11-02T19:26:27.082Z,58.30
2018-11-02T19:29:02.646Z,58.30
2018-11-02T19:31:37.477Z,58.40
2018-11-02T19:34:12.372Z,58.50
2018-11-02T19:36:48.582Z,58.60
2018-11-02T19:39:23.627Z,58.70
2018-11-02T19:41:59.177Z,58.90
2018-11-02T19:44:34.120Z,59.00
2018-11-02T19:47:09.254Z,59.10
2018-11-02T19:49:45.359Z,59.20
2018-11-02T19:52:20.669Z,59.40
2018-11-02T19:57:38.795Z,59.40
2018-11-02T20:00:18.129Z,59.60
2018-11-02T20:02:52.770Z,59.60
2018-11-02T20:08:10.474Z,59.80
2018-11-02T20:10:47.519Z,60.00
2018-11-02T20:13:23.228Z,60.00
2018-11-02T20:18:47.337Z,60.10
2018-11-02T20:21:21.936Z,60.10
2018-11-02T20:23:57.723Z,60.20
2018-11-02T20:26:32.794Z,60.20
2018-11-02T20:29:07.416Z,60.30
2018-11-02T20:34:24.894Z,60.60
2018-11-02T20:39:56.634Z,60.70
2018-11-02T20:42:32.192Z,60.80
2018-11-02T20:45:07.287Z,61.20
2018-11-02T20:47:56.631Z,61.10
2018-11-02T20:50:31.417Z,61.00
2018-11-02T20:53:05.937Z,61.00
2018-11-02T20:55:41.115Z,61.00
2018-11-02T20:58:15.896Z,61.10
2018-11-02T21:03:42.190Z,61.10
2018-11-02T21:06:17.558Z,61.20
2018-11-02T21:08:53.684Z,61.80
2018-11-02T21:11:28.758Z,61.20
2018-11-02T21:14:03.403Z,61.30
2018-11-02T21:16:39.475Z,62.00
2018-11-02T21:19:15.047Z,61.90
2018-11-02T21:24:49.471Z,61.70
2018-11-02T21:27:26.885Z,61.60
2018-11-02T21:30:01.529Z,61.60
2018-11-02T21:32:36.079Z,61.60
2018-11-02T21:35:11.644Z,61.70
2018-11-02T21:37:47.475Z,62.40
2018-11-02T21:40:23.379Z,61.70
2018-11-02T21:42:58.382Z,61.90
2018-11-02T21:45:33.647Z,61.90
2018-11-02T21:48:08.574Z,61.90
2018-11-02T21:50:44.694Z,61.60
2018-11-02T21:53:21.293Z,62.00
2018-11-02T21:55:55.328Z,62.20
2018-11-02T21:58:33.560Z,62.30
2018-11-02T22:01:08.283Z,62.30
2018-11-02T22:06:40.707Z,62.40
2018-11-02T22:09:15.533Z,62.40
2018-11-02T22:11:51.226Z,62.30
2018-11-02T22:20:20.687Z,62.50
2018-11-02T22:25:44.390Z,62.60
2018-11-02T22:28:20.074Z,62.60
2018-11-02T22:30:55.666Z,62.60
2018-11-02T22:33:31.347Z,62.60
2018-11-02T22:36:07.454Z,62.50
2018-11-02T22:41:25.586Z,62.50
2018-11-02T22:44:01.791Z,62.50
2018-11-02T22:46:36.313Z,62.50
2018-11-02T22:49:12.184Z,62.50
2018-11-02T22:51:46.569Z,62.50
2018-11-02T22:57:21.329Z,62.60
2018-11-02T22:59:56.365Z,62.60
2018-11-02T23:02:31.507Z,62.70
2018-11-02T23:07:49.783Z,62.80
2018-11-02T23:10:24.895Z,62.80
2018-11-02T23:13:01.182Z,62.90
2018-11-02T23:15:36.443Z,62.90
2018-11-02T23:18:11.395Z,62.90
2018-11-02T23:20:45.760Z,63.00
2018-11-02T23:23:20.794Z,63.00
2018-11-02T23:25:55.593Z,63.00
2018-11-02T23:28:31.080Z,63.00
2018-11-02T23:31:06.034Z,63.00
2018-11-02T23:33:42.445Z,63.00
2018-11-02T23:39:03.180Z,63.00
2018-11-02T23:41:38.842Z,63.00
2018-11-02T23:44:13.730Z,63.00
2018-11-02T23:49:36.542Z,63.10
2018-11-02T23:52:11.945Z,63.40
2018-11-02T23:54:46.799Z,63.30
